createdAt,value
2023-02-02T00:02:40.587Z,15.20
2023-02-02T00:05:46.380Z,18.45
2023-02-02T00:08:48.240Z,18.35
2023-02-02T00:11:50.362Z,17.52
2023-02-02T00:14:51.797Z,13.02
2023-02-02T00:17:53.227Z,19.65
2023-02-02T00:20:54.654Z,14.25
2023-02-02T00:23:56.428Z,14.50
2023-02-02T00:26:59.818Z,16.42
2023-02-02T00:30:01.334Z,15.77
2023-02-02T00:33:02.836Z,13.38
2023-02-02T00:36:05.333Z,13.15
2023-02-02T00:39:06.947Z,14.27
2023-02-02T00:42:11.627Z,15.32
2023-02-02T00:45:13.957Z,13.45
2023-02-02T00:48:15.573Z,16.73
2023-02-02T00:51:17.025Z,14.88
2023-02-02T00:54:18.493Z,17.05
2023-02-02T00:57:20.145Z,16.55
2023-02-02T01:00:24.345Z,14.43
2023-02-02T01:03:25.787Z,15.77
2023-02-02T01:06:27.634Z,16.23
2023-02-02T01:09:29.090Z,20.10
2023-02-02T01:12:30.606Z,18.92
2023-02-02T01:15:32.094Z,13.27
2023-02-02T01:18:33.660Z,14.52
2023-02-02T01:21:35.129Z,18.48
2023-02-02T01:24:36.688Z,15.98
2023-02-02T01:27:38.119Z,14.60
2023-02-02T01:30:39.586Z,15.13
2023-02-02T01:33:41.703Z,18.80
2023-02-02T01:36:43.240Z,20.85
2023-02-02T01:39:44.785Z,15.20
2023-02-02T01:42:46.241Z,19.25
2023-02-02T01:45:48.055Z,20.67
2023-02-02T01:48:57.536Z,27.63
2023-02-02T01:52:00.835Z,17.35
2023-02-02T01:55:05.741Z,18.33
2023-02-02T01:58:11.589Z,16.83
2023-02-02T02:01:14.667Z,20.17
2023-02-02T02:04:16.300Z,9.52
2023-02-02T02:07:19.437Z,11.27
2023-02-02T02:10:21.606Z,25.80
2023-02-02T02:13:25.725Z,25.73
2023-02-02T02:16:50.554Z,19.73
2023-02-02T02:19:58.135Z,16.75
2023-02-02T02:23:38.820Z,17.42
2023-02-02T02:26:46.257Z,20.50
2023-02-02T02:30:09.029Z,17.08
2023-02-02T02:33:33.923Z,20.02
2023-02-02T02:37:03.874Z,19.05
2023-02-02T02:40:30.336Z,15.43
2023-02-02T02:43:40.391Z,17.02
2023-02-02T02:46:42.200Z,18.10
2023-02-02T02:49:46.475Z,12.00
2023-02-02T02:53:03.238Z,21.90
2023-02-02T02:56:31.981Z,14.38
2023-02-02T02:59:44.601Z,14.52
2023-02-02T03:03:15.420Z,19.30
2023-02-02T03:06:34.130Z,18.40
2023-02-02T03:09:40.797Z,19.90
2023-02-02T03:12:47.713Z,24.02
2023-02-02T03:15:49.188Z,16.30
2023-02-02T03:18:50.678Z,7.38
2023-02-02T03:21:52.128Z,8.13
2023-02-02T03:24:53.557Z,13.95
2023-02-02T03:27:55.169Z,5.75
2023-02-02T03:31:00.661Z,9.70
2023-02-02T03:34:02.135Z,16.65
2023-02-02T03:37:03.589Z,13.57
2023-02-02T03:40:06.426Z,14.90
2023-02-02T03:43:08.220Z,12.45
2023-02-02T03:46:09.779Z,13.85
2023-02-02T03:49:11.320Z,8.80
2023-02-02T03:52:12.879Z,13.70
2023-02-02T03:55:14.392Z,16.52
2023-02-02T03:58:15.804Z,12.85
2023-02-02T04:01:17.284Z,11.95
2023-02-02T04:04:18.736Z,13.57
2023-02-02T04:07:20.210Z,11.23
2023-02-02T04:10:21.807Z,14.02
2023-02-02T04:13:23.353Z,16.75
2023-02-02T04:16:24.836Z,11.63
2023-02-02T04:19:26.293Z,18.20
2023-02-02T04:22:28.050Z,18.02
2023-02-02T04:25:29.487Z,12.63
2023-02-02T04:28:31.213Z,13.85
2023-02-02T04:31:32.687Z,16.40
2023-02-02T04:34:34.141Z,18.38
2023-02-02T04:37:35.541Z,22.85
2023-02-02T04:40:44.248Z,15.60
2023-02-02T04:43:46.292Z,17.55
2023-02-02T04:46:47.749Z,30.48
2023-02-02T04:49:49.180Z,27.58
2023-02-02T04:52:50.636Z,21.17
2023-02-02T04:55:52.071Z,22.40
2023-02-02T04:58:54.021Z,25.35
2023-02-02T05:01:59.368Z,26.10
2023-02-02T05:05:00.821Z,33.08
2023-02-02T05:08:02.288Z,24.02
2023-02-02T05:11:08.108Z,23.48
2023-02-02T05:14:09.951Z,18.20
2023-02-02T05:17:11.380Z,19.02
2023-02-02T05:20:12.968Z,17.67
2023-02-02T05:23:14.408Z,22.92
2023-02-02T05:26:19.509Z,33.72
2023-02-02T05:29:21.011Z,28.55
2023-02-02T05:32:22.510Z,20.98
2023-02-02T05:35:24.603Z,22.63
2023-02-02T05:38:26.207Z,26.38
2023-02-02T05:41:27.887Z,24.95
2023-02-02T05:44:29.356Z,19.50
2023-02-02T05:47:30.860Z,21.27
2023-02-02T05:50:32.314Z,17.05
2023-02-02T05:53:38.656Z,18.38
2023-02-02T05:56:40.081Z,22.13
2023-02-02T05:59:41.526Z,15.82
2023-02-02T06:02:43.010Z,20.63
2023-02-02T06:05:44.455Z,24.95
2023-02-02T06:08:45.875Z,30.60
2023-02-02T06:11:47.323Z,18.63
2023-02-02T06:14:48.803Z,17.27
2023-02-02T06:17:50.295Z,19.20
2023-02-02T06:20:59.655Z,21.70
2023-02-02T06:24:01.115Z,27.95
2023-02-02T06:27:02.563Z,18.35
2023-02-02T06:30:04.391Z,19.17
2023-02-02T06:33:05.905Z,23.73
2023-02-02T06:36:07.702Z,25.95
2023-02-02T06:39:09.218Z,23.20
2023-02-02T06:42:20.763Z,23.33
2023-02-02T06:45:23.240Z,17.95
2023-02-02T06:48:25.741Z,14.55
2023-02-02T06:51:27.226Z,19.40
2023-02-02T06:54:28.714Z,16.20
2023-02-02T06:57:30.221Z,16.42
2023-02-02T07:00:31.727Z,15.82
2023-02-02T07:03:34.179Z,20.30
2023-02-02T07:06:35.696Z,20.45
2023-02-02T07:09:37.187Z,16.75
2023-02-02T07:12:38.682Z,17.65
2023-02-02T07:15:40.665Z,24.88
2023-02-02T07:18:43.032Z,25.13
2023-02-02T07:21:44.481Z,17.27
2023-02-02T07:24:46.053Z,26.88
2023-02-02T07:27:47.502Z,18.17
2023-02-02T07:30:49.142Z,13.75
2023-02-02T07:33:51.368Z,13.13
2023-02-02T07:36:52.907Z,14.23
2023-02-02T07:39:54.348Z,18.70
2023-02-02T07:42:56.083Z,14.32
2023-02-02T07:46:02.190Z,15.88
2023-02-02T07:49:03.679Z,14.38
2023-02-02T07:52:05.227Z,14.93
2023-02-02T07:55:14.534Z,12.02
2023-02-02T07:58:16.621Z,20.40
2023-02-02T08:01:18.089Z,10.43
2023-02-02T08:04:19.639Z,16.80
2023-02-02T08:07:21.074Z,13.45
2023-02-02T08:10:22.577Z,16.90
2023-02-02T08:13:24.053Z,12.38
2023-02-02T08:16:27.796Z,13.18
2023-02-02T08:19:29.273Z,16.45
2023-02-02T08:22:31.344Z,22.70
2023-02-02T08:25:32.810Z,16.20
2023-02-02T08:28:34.283Z,13.98
2023-02-02T08:31:38.822Z,11.23
2023-02-02T08:34:40.302Z,12.43
2023-02-02T08:37:41.773Z,18.50
2023-02-02T08:40:43.256Z,15.23
2023-02-02T08:43:44.978Z,15.88
2023-02-02T08:46:46.455Z,18.40
2023-02-02T08:49:47.926Z,12.98
2023-02-02T08:52:49.382Z,13.25
2023-02-02T08:56:00.956Z,16.77
2023-02-02T08:59:02.450Z,15.27
2023-02-02T09:02:03.951Z,14.93
2023-02-02T09:05:05.806Z,14.38
2023-02-02T09:08:07.395Z,10.07
2023-02-02T09:11:11.284Z,18.17
2023-02-02T09:14:14.119Z,12.32
2023-02-02T09:17:15.570Z,21.42
2023-02-02T09:20:18.590Z,19.60
2023-02-02T09:23:21.719Z,12.82
2023-02-02T09:26:26.016Z,11.30
2023-02-02T09:29:27.588Z,14.43
2023-02-02T09:32:29.099Z,8.50
2023-02-02T09:35:30.551Z,9.65
2023-02-02T09:38:32.121Z,5.47
2023-02-02T09:41:39.390Z,15.98
2023-02-02T09:45:15.516Z,9.32
2023-02-02T09:48:36.720Z,7.20
2023-02-02T09:51:45.400Z,17.85
2023-02-02T09:54:50.104Z,15.48
2023-02-02T09:58:14.707Z,14.05
2023-02-02T10:01:20.068Z,10.70
2023-02-02T10:04:35.267Z,15.65
2023-02-02T10:07:41.936Z,9.18
2023-02-02T10:10:46.708Z,9.07
2023-02-02T10:13:51.732Z,12.68
2023-02-02T10:16:56.900Z,7.78
2023-02-02T10:20:06.493Z,12.63
2023-02-02T10:23:38.092Z,10.05
2023-02-02T10:26:46.869Z,14.95
2023-02-02T10:30:02.060Z,9.70
2023-02-02T10:33:15.281Z,6.85
2023-02-02T10:36:29.580Z,8.32
2023-02-02T10:40:08.756Z,8.07
2023-02-02T10:43:22.414Z,9.52
2023-02-02T10:46:45.049Z,8.05
2023-02-02T10:49:46.827Z,9.65
2023-02-02T10:53:02.089Z,10.70
2023-02-02T10:56:06.071Z,6.10
2023-02-02T10:59:13.592Z,8.65
2023-02-02T11:02:20.785Z,7.95
2023-02-02T11:05:28.670Z,6.47
2023-02-02T11:08:35.995Z,9.48
2023-02-02T11:11:41.483Z,5.32
2023-02-02T11:15:18.470Z,6.95
2023-02-02T11:18:29.299Z,9.25
2023-02-02T11:21:34.990Z,5.03
2023-02-02T11:24:55.488Z,9.25
2023-02-02T11:27:57.822Z,7.47
2023-02-02T11:30:59.445Z,8.77
2023-02-02T11:34:28.168Z,5.78
2023-02-02T11:37:31.029Z,10.48
2023-02-02T11:40:37.470Z,8.57
2023-02-02T11:43:50.883Z,5.00
2023-02-02T11:46:53.814Z,8.50
2023-02-02T11:49:57.659Z,5.28
2023-02-02T11:53:01.866Z,8.45
2023-02-02T11:56:10.741Z,5.68
2023-02-02T11:59:41.303Z,8.40
2023-02-02T12:02:49.582Z,6.07
2023-02-02T12:05:51.280Z,7.28
2023-02-02T12:08:57.908Z,10.27
2023-02-02T12:12:05.242Z,4.53
2023-02-02T12:15:12.659Z,4.47
2023-02-02T12:18:26.275Z,6.75
2023-02-02T12:24:58.976Z,5.50
2023-02-02T12:28:25.825Z,4.53
2023-02-02T12:31:37.876Z,6.13
2023-02-02T12:34:59.755Z,5.70
2023-02-02T12:38:20.647Z,5.82
2023-02-02T12:41:30.448Z,5.55
2023-02-02T12:44:48.569Z,6.85
2023-02-02T12:48:09.773Z,8.48
2023-02-02T12:51:29.679Z,5.47
2023-02-02T12:54:57.633Z,7.93
2023-02-02T12:58:09.470Z,6.97
2023-02-02T13:01:36.405Z,6.15
2023-02-02T13:04:47.060Z,4.53
2023-02-02T13:07:55.632Z,5.13
2023-02-02T13:11:08.521Z,6.50
2023-02-02T13:14:14.925Z,6.28
2023-02-02T13:17:28.833Z,4.93
2023-02-02T13:20:51.446Z,2.97
2023-02-02T13:23:57.668Z,2.83
2023-02-02T13:27:02.326Z,3.85
2023-02-02T13:30:15.989Z,7.75
2023-02-02T13:33:23.766Z,3.47
2023-02-02T13:36:30.501Z,8.07
2023-02-02T13:39:47.478Z,2.63
2023-02-02T13:43:08.119Z,4.07
2023-02-02T13:46:15.685Z,3.63
2023-02-02T13:49:29.867Z,3.50
2023-02-02T13:52:42.966Z,2.70
2023-02-02T13:56:19.917Z,6.65
2023-02-02T13:59:45.771Z,3.97
2023-02-02T14:03:06.353Z,6.95
2023-02-02T14:06:13.098Z,5.38
2023-02-02T14:09:18.504Z,6.82
2023-02-02T14:12:30.486Z,3.60
2023-02-02T14:15:40.845Z,6.05
2023-02-02T14:18:48.204Z,6.07
2023-02-02T14:22:01.455Z,8.30
2023-02-02T14:25:03.835Z,5.60
2023-02-02T14:28:13.565Z,8.57
2023-02-02T14:31:30.451Z,6.55
2023-02-02T14:34:42.708Z,5.25
2023-02-02T14:37:55.807Z,8.45
2023-02-02T14:41:13.649Z,4.30
2023-02-02T14:44:15.793Z,4.25
2023-02-02T14:47:44.901Z,6.28
2023-02-02T14:50:51.413Z,8.60
2023-02-02T14:53:55.787Z,4.88
2023-02-02T14:57:01.533Z,3.92
2023-02-02T15:00:03.395Z,9.20
2023-02-02T15:03:35.711Z,6.18
2023-02-02T15:06:40.562Z,8.63
2023-02-02T15:09:43.661Z,9.18
2023-02-02T15:12:45.886Z,8.05
2023-02-02T15:15:51.030Z,6.75
2023-02-02T15:19:04.664Z,6.90
2023-02-02T15:25:48.220Z,6.70
2023-02-02T15:29:00.136Z,7.47
2023-02-02T15:32:05.416Z,7.03
2023-02-02T15:35:15.415Z,4.43
2023-02-02T15:38:18.941Z,6.07
2023-02-02T15:41:22.599Z,8.27
2023-02-02T15:44:28.268Z,11.68
2023-02-02T15:47:33.451Z,6.28
2023-02-02T15:50:35.859Z,7.63
2023-02-02T15:53:43.180Z,9.07
2023-02-02T15:56:44.671Z,5.50
2023-02-02T15:59:46.117Z,7.22
2023-02-02T16:02:52.604Z,10.95
2023-02-02T16:05:56.423Z,9.05
2023-02-02T16:08:58.018Z,7.53
2023-02-02T16:11:59.794Z,7.95
2023-02-02T16:15:01.404Z,14.18
2023-02-02T16:18:05.964Z,23.73
2023-02-02T16:21:17.056Z,21.15
2023-02-02T16:24:24.811Z,14.50
2023-02-02T16:27:28.917Z,7.63
2023-02-02T16:30:33.491Z,6.82
2023-02-02T16:33:42.319Z,12.20
2023-02-02T16:36:44.091Z,8.00
2023-02-02T16:39:45.658Z,6.15
2023-02-02T16:42:47.098Z,6.05
2023-02-02T16:45:55.978Z,6.88
2023-02-02T16:48:59.924Z,6.78
2023-02-02T16:52:18.071Z,11.80
2023-02-02T16:55:21.054Z,6.82
2023-02-02T16:58:24.532Z,15.48
2023-02-02T17:01:37.482Z,8.38
2023-02-02T17:04:39.293Z,12.05
2023-02-02T17:07:47.546Z,11.95
2023-02-02T17:11:02.037Z,12.15
2023-02-02T17:14:19.720Z,11.15
2023-02-02T17:17:21.196Z,12.23
2023-02-02T17:20:23.051Z,10.02
2023-02-02T17:23:28.067Z,7.85
2023-02-02T17:26:30.236Z,15.80
2023-02-02T17:29:31.903Z,12.45
2023-02-02T17:32:33.347Z,11.55
2023-02-02T17:35:51.467Z,9.55
2023-02-02T17:38:54.988Z,11.65
2023-02-02T17:41:57.537Z,15.43
2023-02-02T17:44:59.364Z,11.35
2023-02-02T17:48:01.711Z,8.98
2023-02-02T17:51:03.253Z,8.07
2023-02-02T17:54:10.517Z,8.43
2023-02-02T17:57:12.043Z,10.70
2023-02-02T18:00:14.564Z,7.03
2023-02-02T18:03:23.486Z,9.25
2023-02-02T18:06:25.097Z,6.63
2023-02-02T18:09:26.573Z,9.70
2023-02-02T18:12:28.046Z,14.05
2023-02-02T18:15:29.525Z,9.82
2023-02-02T18:18:31.049Z,11.95
2023-02-02T18:21:32.517Z,11.13
2023-02-02T18:24:33.965Z,12.32
2023-02-02T18:27:35.404Z,14.23
2023-02-02T18:30:38.379Z,21.05
2023-02-02T18:33:40.213Z,32.17
2023-02-02T18:36:41.672Z,19.13
2023-02-02T18:39:43.300Z,15.32
2023-02-02T18:42:44.739Z,12.98
2023-02-02T18:45:46.205Z,10.57
2023-02-02T18:48:47.698Z,10.00
2023-02-02T18:51:49.151Z,8.30
2023-02-02T18:54:51.092Z,17.65
2023-02-02T18:57:52.555Z,11.55
2023-02-02T19:00:54.015Z,16.40
2023-02-02T19:03:56.085Z,11.20
2023-02-02T19:06:57.624Z,15.82
2023-02-02T19:09:59.065Z,17.13
2023-02-02T19:13:11.735Z,12.10
2023-02-02T19:16:26.077Z,13.15
2023-02-02T19:19:33.653Z,14.38
2023-02-02T19:22:35.115Z,12.95
2023-02-02T19:25:36.648Z,17.05
2023-02-02T19:28:39.213Z,13.70
2023-02-02T19:31:40.706Z,19.47
2023-02-02T19:34:42.245Z,16.60
2023-02-02T19:37:43.713Z,11.65
2023-02-02T19:40:45.223Z,9.98
2023-02-02T19:43:48.669Z,14.15
2023-02-02T19:46:52.768Z,14.95
2023-02-02T19:49:54.297Z,17.67
2023-02-02T19:52:55.768Z,12.40
2023-02-02T19:55:57.225Z,19.60
2023-02-02T19:58:59.294Z,15.20
2023-02-02T20:02:32.898Z,20.40
2023-02-02T20:05:39.361Z,17.40
2023-02-02T20:08:42.712Z,15.10
2023-02-02T20:11:46.770Z,14.85
2023-02-02T20:14:48.468Z,15.15
2023-02-02T20:17:49.996Z,15.43
2023-02-02T20:20:57.025Z,11.73
2023-02-02T20:23:58.574Z,10.93
2023-02-02T20:27:16.342Z,11.82
2023-02-02T20:30:24.981Z,11.68
2023-02-02T20:33:26.757Z,11.10
2023-02-02T20:36:36.646Z,11.88
2023-02-02T20:39:46.829Z,9.82
2023-02-02T20:42:49.131Z,10.88
2023-02-02T20:45:51.116Z,10.25
2023-02-02T20:48:52.671Z,13.73
2023-02-02T20:51:55.816Z,19.27
2023-02-02T20:54:57.319Z,12.30
2023-02-02T20:57:58.793Z,11.35
2023-02-02T21:01:00.405Z,11.02
2023-02-02T21:04:02.048Z,13.05
2023-02-02T21:07:03.479Z,10.35
2023-02-02T21:10:05.165Z,16.00
2023-02-02T21:13:06.624Z,12.40
2023-02-02T21:16:08.223Z,12.98
2023-02-02T21:19:10.137Z,8.98
2023-02-02T21:22:12.485Z,11.15
2023-02-02T21:25:13.958Z,11.77
2023-02-02T21:28:15.404Z,10.15
2023-02-02T21:31:17.449Z,10.70
2023-02-02T21:34:19.053Z,11.73
2023-02-02T21:37:20.530Z,7.30
2023-02-02T21:40:28.693Z,12.13
2023-02-02T21:43:32.791Z,9.43
2023-02-02T21:46:37.887Z,13.98
2023-02-02T21:49:39.813Z,10.88
2023-02-02T21:52:41.382Z,12.82
2023-02-02T21:55:44.394Z,8.77
2023-02-02T21:58:45.871Z,12.85
2023-02-02T22:01:49.014Z,11.65
2023-02-02T22:04:50.923Z,10.18
2023-02-02T22:07:52.843Z,9.70
2023-02-02T22:10:54.302Z,8.23
2023-02-02T22:14:15.391Z,9.82
2023-02-02T22:17:38.933Z,9.48
2023-02-02T22:20:40.506Z,5.82
2023-02-02T22:23:42.155Z,7.90
2023-02-02T22:26:43.716Z,7.15
2023-02-02T22:29:45.238Z,11.38
2023-02-02T22:32:46.663Z,7.90
2023-02-02T22:35:48.257Z,10.68
2023-02-02T22:38:49.694Z,9.20
2023-02-02T22:41:51.166Z,7.40
2023-02-02T22:44:52.596Z,8.05
2023-02-02T22:47:54.558Z,9.90
2023-02-02T22:50:56.025Z,8.15
2023-02-02T22:53:57.434Z,8.38
2023-02-02T22:56:58.886Z,8.85
2023-02-02T23:00:00.404Z,9.65
2023-02-02T23:03:01.917Z,8.20
2023-02-02T23:06:03.557Z,11.60
2023-02-02T23:09:05.009Z,10.43
2023-02-02T23:12:06.785Z,9.02
2023-02-02T23:15:09.042Z,10.27
2023-02-02T23:18:10.495Z,11.18
2023-02-02T23:21:11.946Z,12.10
2023-02-02T23:24:13.601Z,12.27
2023-02-02T23:27:15.376Z,11.43
2023-02-02T23:30:17.316Z,16.52
2023-02-02T23:33:18.775Z,12.60
2023-02-02T23:36:20.220Z,15.00
2023-02-02T23:39:21.651Z,22.02
2023-02-02T23:42:23.169Z,19.15
2023-02-02T23:45:24.737Z,16.92
2023-02-02T23:48:26.219Z,17.27
2023-02-02T23:51:27.710Z,20.90
2023-02-02T23:54:29.961Z,19.33
2023-02-02T23:57:31.786Z,18.50
